sensor_id;sensor_type;location;lat;lon;timestamp;P1;durP1;ratioP1;P2;durP2;ratioP2
9801;SDS011;4940;50.900;4.672;2023-06-22T00:00:42;6.53;;;5.53;;
9801;SDS011;4940;50.900;4.672;2023-06-22T00:03:09;7.60;;;4.93;;
9801;SDS011;4940;50.900;4.672;2023-06-22T00:05:37;6.07;;;5.10;;
9801;SDS011;4940;50.900;4.672;2023-06-22T00:08:04;5.43;;;4.93;;
9801;SDS011;4940;50.900;4.672;2023-06-22T00:10:32;5.75;;;5.15;;
9801;SDS011;4940;50.900;4.672;2023-06-22T00:13:00;6.60;;;5.72;;
9801;SDS011;4940;50.900;4.672;2023-06-22T00:15:27;6.82;;;5.22;;
9801;SDS011;4940;50.900;4.672;2023-06-22T00:17:57;6.45;;;4.90;;
9801;SDS011;4940;50.900;4.672;2023-06-22T00:20:24;6.57;;;5.45;;
9801;SDS011;4940;50.900;4.672;2023-06-22T00:22:53;6.60;;;5.32;;
9801;SDS011;4940;50.900;4.672;2023-06-22T00:25:20;6.38;;;5.50;;
9801;SDS011;4940;50.900;4.672;2023-06-22T00:27:48;7.40;;;5.18;;
9801;SDS011;4940;50.900;4.672;2023-06-22T00:30:16;6.88;;;5.40;;
9801;SDS011;4940;50.900;4.672;2023-06-22T00:32:43;6.85;;;5.28;;
9801;SDS011;4940;50.900;4.672;2023-06-22T00:35:12;6.85;;;6.15;;
9801;SDS011;4940;50.900;4.672;2023-06-22T00:37:40;7.60;;;6.10;;
9801;SDS011;4940;50.900;4.672;2023-06-22T00:40:08;6.80;;;5.72;;
9801;SDS011;4940;50.900;4.672;2023-06-22T00:42:37;9.05;;;6.20;;
9801;SDS011;4940;50.900;4.672;2023-06-22T00:45:05;7.68;;;5.95;;
9801;SDS011;4940;50.900;4.672;2023-06-22T00:47:33;8.52;;;5.47;;
9801;SDS011;4940;50.900;4.672;2023-06-22T00:50:01;5.93;;;5.22;;
9801;SDS011;4940;50.900;4.672;2023-06-22T00:52:30;9.15;;;5.95;;
9801;SDS011;4940;50.900;4.672;2023-06-22T00:55:00;7.40;;;6.03;;
9801;SDS011;4940;50.900;4.672;2023-06-22T00:57:28;9.60;;;6.10;;
9801;SDS011;4940;50.900;4.672;2023-06-22T00:59:56;8.27;;;6.15;;
9801;SDS011;4940;50.900;4.672;2023-06-22T01:02:23;6.38;;;5.70;;
9801;SDS011;4940;50.900;4.672;2023-06-22T01:04:51;8.25;;;5.70;;
9801;SDS011;4940;50.900;4.672;2023-06-22T01:07:21;7.07;;;5.57;;
9801;SDS011;4940;50.900;4.672;2023-06-22T01:09:59;6.68;;;4.85;;
9801;SDS011;4940;50.900;4.672;2023-06-22T01:12:30;6.93;;;5.80;;
9801;SDS011;4940;50.900;4.672;2023-06-22T01:15:00;8.57;;;5.85;;
9801;SDS011;4940;50.900;4.672;2023-06-22T01:17:29;7.85;;;5.72;;
9801;SDS011;4940;50.900;4.672;2023-06-22T01:19:57;5.63;;;5.07;;
9801;SDS011;4940;50.900;4.672;2023-06-22T01:22:25;8.10;;;5.60;;
9801;SDS011;4940;50.900;4.672;2023-06-22T01:27:39;8.15;;;6.30;;
9801;SDS011;4940;50.900;4.672;2023-06-22T01:30:15;8.55;;;5.88;;
9801;SDS011;4940;50.900;4.672;2023-06-22T01:32:46;8.77;;;5.57;;
9801;SDS011;4940;50.900;4.672;2023-06-22T01:35:15;6.88;;;5.80;;
9801;SDS011;4940;50.900;4.672;2023-06-22T01:37:43;6.75;;;5.90;;
9801;SDS011;4940;50.900;4.672;2023-06-22T01:40:12;6.95;;;5.22;;
9801;SDS011;4940;50.900;4.672;2023-06-22T01:42:41;6.15;;;5.50;;
9801;SDS011;4940;50.900;4.672;2023-06-22T01:45:10;6.40;;;5.70;;
9801;SDS011;4940;50.900;4.672;2023-06-22T01:47:40;9.43;;;6.05;;
9801;SDS011;4940;50.900;4.672;2023-06-22T01:50:07;7.53;;;5.85;;
9801;SDS011;4940;50.900;4.672;2023-06-22T01:52:36;7.13;;;6.35;;
9801;SDS011;4940;50.900;4.672;2023-06-22T01:55:04;7.18;;;6.18;;
9801;SDS011;4940;50.900;4.672;2023-06-22T01:57:33;7.43;;;6.68;;
9801;SDS011;4940;50.900;4.672;2023-06-22T02:00:01;7.30;;;6.57;;
9801;SDS011;4940;50.900;4.672;2023-06-22T02:02:31;7.53;;;6.22;;
9801;SDS011;4940;50.900;4.672;2023-06-22T02:05:05;7.93;;;6.65;;
9801;SDS011;4940;50.900;4.672;2023-06-22T02:07:36;7.78;;;6.97;;
9801;SDS011;4940;50.900;4.672;2023-06-22T02:10:11;9.30;;;6.93;;
9801;SDS011;4940;50.900;4.672;2023-06-22T02:12:40;9.40;;;8.38;;
9801;SDS011;4940;50.900;4.672;2023-06-22T02:15:10;9.55;;;8.73;;
9801;SDS011;4940;50.900;4.672;2023-06-22T02:17:39;10.45;;;9.45;;
9801;SDS011;4940;50.900;4.672;2023-06-22T02:20:13;11.10;;;10.10;;
9801;SDS011;4940;50.900;4.672;2023-06-22T02:22:41;12.10;;;11.10;;
9801;SDS011;4940;50.900;4.672;2023-06-22T02:25:08;11.23;;;10.32;;
9801;SDS011;4940;50.900;4.672;2023-06-22T02:27:36;12.38;;;11.27;;
9801;SDS011;4940;50.900;4.672;2023-06-22T02:30:06;13.68;;;12.30;;
9801;SDS011;4940;50.900;4.672;2023-06-22T02:32:34;13.93;;;12.82;;
9801;SDS011;4940;50.900;4.672;2023-06-22T02:35:02;14.68;;;13.57;;
9801;SDS011;4940;50.900;4.672;2023-06-22T02:37:33;16.02;;;14.77;;
9801;SDS011;4940;50.900;4.672;2023-06-22T02:40:04;14.65;;;13.45;;
9801;SDS011;4940;50.900;4.672;2023-06-22T02:42:34;16.05;;;14.85;;
9801;SDS011;4940;50.900;4.672;2023-06-22T02:45:01;16.42;;;15.15;;
9801;SDS011;4940;50.900;4.672;2023-06-22T02:47:29;15.93;;;14.65;;
9801;SDS011;4940;50.900;4.672;2023-06-22T02:49:57;15.48;;;14.35;;
9801;SDS011;4940;50.900;4.672;2023-06-22T02:52:24;16.80;;;15.52;;
9801;SDS011;4940;50.900;4.672;2023-06-22T02:54:53;18.90;;;17.40;;
9801;SDS011;4940;50.900;4.672;2023-06-22T02:57:20;19.88;;;18.48;;
9801;SDS011;4940;50.900;4.672;2023-06-22T02:59:48;21.13;;;19.70;;
9801;SDS011;4940;50.900;4.672;2023-06-22T03:02:15;22.17;;;20.77;;
9801;SDS011;4940;50.900;4.672;2023-06-22T03:04:44;20.38;;;19.00;;
9801;SDS011;4940;50.900;4.672;2023-06-22T03:07:14;20.65;;;19.05;;
9801;SDS011;4940;50.900;4.672;2023-06-22T03:09:43;20.02;;;18.73;;
9801;SDS011;4940;50.900;4.672;2023-06-22T03:12:11;20.33;;;18.73;;
9801;SDS011;4940;50.900;4.672;2023-06-22T03:14:39;20.33;;;18.83;;
9801;SDS011;4940;50.900;4.672;2023-06-22T03:17:06;19.25;;;17.58;;
9801;SDS011;4940;50.900;4.672;2023-06-22T03:19:34;21.08;;;19.58;;
9801;SDS011;4940;50.900;4.672;2023-06-22T03:22:01;19.80;;;18.50;;
9801;SDS011;4940;50.900;4.672;2023-06-22T03:24:29;20.10;;;18.70;;
9801;SDS011;4940;50.900;4.672;2023-06-22T03:26:56;19.58;;;18.08;;
9801;SDS011;4940;50.900;4.672;2023-06-22T03:29:25;17.55;;;16.25;;
9801;SDS011;4940;50.900;4.672;2023-06-22T03:31:52;19.58;;;18.17;;
9801;SDS011;4940;50.900;4.672;2023-06-22T03:34:20;19.38;;;18.08;;
9801;SDS011;4940;50.900;4.672;2023-06-22T03:36:47;23.15;;;20.95;;
9801;SDS011;4940;50.900;4.672;2023-06-22T03:39:15;23.20;;;21.60;;
9801;SDS011;4940;50.900;4.672;2023-06-22T03:41:42;22.08;;;20.45;;
9801;SDS011;4940;50.900;4.672;2023-06-22T03:44:09;21.02;;;19.45;;
9801;SDS011;4940;50.900;4.672;2023-06-22T03:46:39;20.95;;;19.35;;
9801;SDS011;4940;50.900;4.672;2023-06-22T03:49:06;19.10;;;17.65;;
9801;SDS011;4940;50.900;4.672;2023-06-22T03:51:33;19.50;;;18.00;;
9801;SDS011;4940;50.900;4.672;2023-06-22T03:54:01;17.40;;;16.08;;
9801;SDS011;4940;50.900;4.672;2023-06-22T03:56:28;18.10;;;16.70;;
9801;SDS011;4940;50.900;4.672;2023-06-22T03:58:56;15.88;;;14.60;;
9801;SDS011;4940;50.900;4.672;2023-06-22T04:01:24;15.40;;;14.23;;
9801;SDS011;4940;50.900;4.672;2023-06-22T04:03:52;15.82;;;14.18;;
9801;SDS011;4940;50.900;4.672;2023-06-22T04:06:20;14.27;;;12.85;;
9801;SDS011;4940;50.900;4.672;2023-06-22T04:08:47;14.20;;;12.80;;
9801;SDS011;4940;50.900;4.672;2023-06-22T04:11:16;12.25;;;10.52;;
9801;SDS011;4940;50.900;4.672;2023-06-22T04:13:43;13.35;;;12.00;;
9801;SDS011;4940;50.900;4.672;2023-06-22T04:16:11;12.30;;;11.23;;
9801;SDS011;4940;50.900;4.672;2023-06-22T04:18:38;12.13;;;10.95;;
9801;SDS011;4940;50.900;4.672;2023-06-22T04:21:08;11.32;;;10.32;;
9801;SDS011;4940;50.900;4.672;2023-06-22T04:23:36;11.77;;;10.68;;
9801;SDS011;4940;50.900;4.672;2023-06-22T04:26:04;11.77;;;10.63;;
9801;SDS011;4940;50.900;4.672;2023-06-22T04:28:31;12.25;;;11.02;;
9801;SDS011;4940;50.900;4.672;2023-06-22T04:31:00;12.82;;;11.55;;
9801;SDS011;4940;50.900;4.672;2023-06-22T04:33:27;12.48;;;11.35;;
9801;SDS011;4940;50.900;4.672;2023-06-22T04:35:55;12.90;;;11.60;;
9801;SDS011;4940;50.900;4.672;2023-06-22T04:38:24;13.68;;;12.48;;
9801;SDS011;4940;50.900;4.672;2023-06-22T04:40:52;15.35;;;13.82;;
9801;SDS011;4940;50.900;4.672;2023-06-22T04:43:19;14.88;;;13.43;;
9801;SDS011;4940;50.900;4.672;2023-06-22T04:45:47;17.13;;;13.27;;
9801;SDS011;4940;50.900;4.672;2023-06-22T04:48:17;16.85;;;15.40;;
9801;SDS011;4940;50.900;4.672;2023-06-22T04:50:45;18.20;;;16.75;;
9801;SDS011;4940;50.900;4.672;2023-06-22T04:53:12;18.05;;;16.60;;
9801;SDS011;4940;50.900;4.672;2023-06-22T04:55:41;18.75;;;17.10;;
9801;SDS011;4940;50.900;4.672;2023-06-22T04:58:11;17.35;;;15.75;;
9801;SDS011;4940;50.900;4.672;2023-06-22T05:00:39;15.10;;;13.68;;
9801;SDS011;4940;50.900;4.672;2023-06-22T05:03:06;14.75;;;13.57;;
9801;SDS011;4940;50.900;4.672;2023-06-22T05:05:36;19.05;;;17.55;;
9801;SDS011;4940;50.900;4.672;2023-06-22T05:08:04;19.73;;;17.80;;
9801;SDS011;4940;50.900;4.672;2023-06-22T05:10:32;19.75;;;18.35;;
9801;SDS011;4940;50.900;4.672;2023-06-22T05:13:01;19.40;;;17.60;;
9801;SDS011;4940;50.900;4.672;2023-06-22T05:15:28;19.77;;;18.08;;
9801;SDS011;4940;50.900;4.672;2023-06-22T05:18:01;20.98;;;19.58;;
9801;SDS011;4940;50.900;4.672;2023-06-22T05:20:30;21.25;;;19.50;;
9801;SDS011;4940;50.900;4.672;2023-06-22T05:22:59;21.15;;;19.65;;
9801;SDS011;4940;50.900;4.672;2023-06-22T05:25:26;23.80;;;21.90;;
9801;SDS011;4940;50.900;4.672;2023-06-22T05:27:55;22.92;;;21.10;;
9801;SDS011;4940;50.900;4.672;2023-06-22T05:30:24;24.23;;;22.15;;
9801;SDS011;4940;50.900;4.672;2023-06-22T05:32:51;24.75;;;22.75;;
9801;SDS011;4940;50.900;4.672;2023-06-22T05:35:18;23.23;;;21.42;;
9801;SDS011;4940;50.900;4.672;2023-06-22T05:37:46;18.88;;;17.10;;
9801;SDS011;4940;50.900;4.672;2023-06-22T05:40:13;16.80;;;15.45;;
9801;SDS011;4940;50.900;4.672;2023-06-22T05:42:40;14.82;;;13.52;;
9801;SDS011;4940;50.900;4.672;2023-06-22T05:45:08;15.18;;;13.77;;
9801;SDS011;4940;50.900;4.672;2023-06-22T05:47:37;16.55;;;13.52;;
9801;SDS011;4940;50.900;4.672;2023-06-22T05:50:04;13.70;;;12.38;;
9801;SDS011;4940;50.900;4.672;2023-06-22T05:52:34;13.60;;;12.30;;
9801;SDS011;4940;50.900;4.672;2023-06-22T05:55:02;13.00;;;11.80;;
9801;SDS011;4940;50.900;4.672;2023-06-22T05:57:29;12.65;;;11.40;;
9801;SDS011;4940;50.900;4.672;2023-06-22T05:59:56;12.73;;;11.40;;
9801;SDS011;4940;50.900;4.672;2023-06-22T06:02:24;12.73;;;11.50;;
9801;SDS011;4940;50.900;4.672;2023-06-22T06:04:53;15.00;;;13.25;;
9801;SDS011;4940;50.900;4.672;2023-06-22T06:07:21;13.35;;;11.82;;
9801;SDS011;4940;50.900;4.672;2023-06-22T06:09:48;12.88;;;11.57;;
9801;SDS011;4940;50.900;4.672;2023-06-22T06:12:15;11.40;;;10.20;;
9801;SDS011;4940;50.900;4.672;2023-06-22T06:14:43;13.10;;;11.80;;
9801;SDS011;4940;50.900;4.672;2023-06-22T06:17:10;12.68;;;11.38;;
9801;SDS011;4940;50.900;4.672;2023-06-22T06:19:38;12.00;;;10.60;;
9801;SDS011;4940;50.900;4.672;2023-06-22T06:22:06;15.50;;;11.50;;
9801;SDS011;4940;50.900;4.672;2023-06-22T06:24:34;14.00;;;12.52;;
9801;SDS011;4940;50.900;4.672;2023-06-22T06:27:01;14.15;;;11.60;;
9801;SDS011;4940;50.900;4.672;2023-06-22T06:29:30;12.52;;;11.23;;
9801;SDS011;4940;50.900;4.672;2023-06-22T06:31:58;17.20;;;11.35;;
9801;SDS011;4940;50.900;4.672;2023-06-22T06:34:25;12.52;;;11.18;;
9801;SDS011;4940;50.900;4.672;2023-06-22T06:36:52;13.85;;;10.75;;
9801;SDS011;4940;50.900;4.672;2023-06-22T06:39:21;13.73;;;10.90;;
9801;SDS011;4940;50.900;4.672;2023-06-22T06:41:48;13.73;;;9.95;;
9801;SDS011;4940;50.900;4.672;2023-06-22T06:44:16;13.27;;;10.10;;
9801;SDS011;4940;50.900;4.672;2023-06-22T06:46:43;12.02;;;9.70;;
9801;SDS011;4940;50.900;4.672;2023-06-22T06:49:11;13.40;;;10.82;;
9801;SDS011;4940;50.900;4.672;2023-06-22T06:51:38;13.85;;;10.10;;
9801;SDS011;4940;50.900;4.672;2023-06-22T06:54:06;13.32;;;10.13;;
9801;SDS011;4940;50.900;4.672;2023-06-22T06:56:34;13.88;;;10.95;;
9801;SDS011;4940;50.900;4.672;2023-06-22T06:59:02;13.05;;;10.38;;
9801;SDS011;4940;50.900;4.672;2023-06-22T07:01:29;12.35;;;10.45;;
9801;SDS011;4940;50.900;4.672;2023-06-22T07:03:59;13.90;;;11.10;;
9801;SDS011;4940;50.900;4.672;2023-06-22T07:06:26;15.30;;;10.55;;
9801;SDS011;4940;50.900;4.672;2023-06-22T07:08:57;13.00;;;10.80;;
9801;SDS011;4940;50.900;4.672;2023-06-22T07:11:25;15.48;;;11.32;;
9801;SDS011;4940;50.900;4.672;2023-06-22T07:13:53;14.75;;;10.85;;
9801;SDS011;4940;50.900;4.672;2023-06-22T07:16:21;14.90;;;10.90;;
9801;SDS011;4940;50.900;4.672;2023-06-22T07:18:49;15.40;;;10.65;;
9801;SDS011;4940;50.900;4.672;2023-06-22T07:21:16;12.32;;;9.52;;
9801;SDS011;4940;50.900;4.672;2023-06-22T07:23:43;15.68;;;10.07;;
9801;SDS011;4940;50.900;4.672;2023-06-22T07:26:11;10.45;;;8.85;;
9801;SDS011;4940;50.900;4.672;2023-06-22T07:28:38;17.77;;;10.10;;
9801;SDS011;4940;50.900;4.672;2023-06-22T07:31:07;10.75;;;8.10;;
9801;SDS011;4940;50.900;4.672;2023-06-22T07:33:35;12.75;;;8.23;;
9801;SDS011;4940;50.900;4.672;2023-06-22T07:36:02;10.95;;;8.07;;
9801;SDS011;4940;50.900;4.672;2023-06-22T07:38:33;9.88;;;8.10;;
9801;SDS011;4940;50.900;4.672;2023-06-22T07:41:00;10.05;;;8.45;;
9801;SDS011;4940;50.900;4.672;2023-06-22T07:43:30;9.43;;;8.40;;
9801;SDS011;4940;50.900;4.672;2023-06-22T07:45:59;10.27;;;7.93;;
9801;SDS011;4940;50.900;4.672;2023-06-22T07:48:28;10.73;;;8.18;;
9801;SDS011;4940;50.900;4.672;2023-06-22T07:50:56;10.32;;;8.55;;
9801;SDS011;4940;50.900;4.672;2023-06-22T07:53:23;9.52;;;8.27;;
9801;SDS011;4940;50.900;4.672;2023-06-22T07:55:51;10.68;;;8.73;;
9801;SDS011;4940;50.900;4.672;2023-06-22T07:58:18;12.10;;;8.75;;
9801;SDS011;4940;50.900;4.672;2023-06-22T08:00:46;11.13;;;8.82;;
9801;SDS011;4940;50.900;4.672;2023-06-22T08:03:14;12.82;;;9.60;;
9801;SDS011;4940;50.900;4.672;2023-06-22T08:05:43;12.20;;;9.05;;
9801;SDS011;4940;50.900;4.672;2023-06-22T08:08:10;12.25;;;8.75;;
9801;SDS011;4940;50.900;4.672;2023-06-22T08:10:40;12.77;;;8.60;;
9801;SDS011;4940;50.900;4.672;2023-06-22T08:13:07;10.25;;;8.98;;
9801;SDS011;4940;50.900;4.672;2023-06-22T08:15:35;11.43;;;8.00;;
9801;SDS011;4940;50.900;4.672;2023-06-22T08:18:02;13.82;;;8.57;;
9801;SDS011;4940;50.900;4.672;2023-06-22T08:20:30;9.45;;;7.57;;
9801;SDS011;4940;50.900;4.672;2023-06-22T08:22:59;10.77;;;7.50;;
9801;SDS011;4940;50.900;4.672;2023-06-22T08:25:31;9.35;;;7.78;;
9801;SDS011;4940;50.900;4.672;2023-06-22T08:27:59;8.63;;;7.28;;
9801;SDS011;4940;50.900;4.672;2023-06-22T08:30:27;7.40;;;6.60;;
9801;SDS011;4940;50.900;4.672;2023-06-22T08:32:54;8.50;;;6.50;;
9801;SDS011;4940;50.900;4.672;2023-06-22T08:35:22;8.35;;;6.53;;
9801;SDS011;4940;50.900;4.672;2023-06-22T08:37:49;8.18;;;7.00;;
9801;SDS011;4940;50.900;4.672;2023-06-22T08:40:21;7.78;;;6.95;;
9801;SDS011;4940;50.900;4.672;2023-06-22T08:42:49;9.85;;;6.65;;
9801;SDS011;4940;50.900;4.672;2023-06-22T08:45:17;7.88;;;5.68;;
9801;SDS011;4940;50.900;4.672;2023-06-22T08:47:44;6.50;;;5.90;;
9801;SDS011;4940;50.900;4.672;2023-06-22T08:50:12;6.57;;;5.85;;
9801;SDS011;4940;50.900;4.672;2023-06-22T08:52:40;6.57;;;5.22;;
9801;SDS011;4940;50.900;4.672;2023-06-22T08:55:07;8.27;;;5.43;;
9801;SDS011;4940;50.900;4.672;2023-06-22T08:57:37;6.80;;;5.80;;
9801;SDS011;4940;50.900;4.672;2023-06-22T09:00:05;6.53;;;5.53;;
9801;SDS011;4940;50.900;4.672;2023-06-22T09:02:43;6.72;;;5.55;;
9801;SDS011;4940;50.900;4.672;2023-06-22T09:05:11;5.78;;;5.15;;
9801;SDS011;4940;50.900;4.672;2023-06-22T09:07:38;8.93;;;5.60;;
9801;SDS011;4940;50.900;4.672;2023-06-22T09:10:07;6.95;;;5.38;;
9801;SDS011;4940;50.900;4.672;2023-06-22T09:12:34;6.78;;;5.35;;
9801;SDS011;4940;50.900;4.672;2023-06-22T09:15:04;7.63;;;5.20;;
9801;SDS011;4940;50.900;4.672;2023-06-22T09:17:32;7.57;;;5.32;;
9801;SDS011;4940;50.900;4.672;2023-06-22T09:20:01;8.30;;;5.25;;
9801;SDS011;4940;50.900;4.672;2023-06-22T09:22:31;6.57;;;4.97;;
9801;SDS011;4940;50.900;4.672;2023-06-22T09:24:58;6.13;;;5.03;;
9801;SDS011;4940;50.900;4.672;2023-06-22T09:27:26;6.43;;;4.93;;
9801;SDS011;4940;50.900;4.672;2023-06-22T09:29:55;5.65;;;5.03;;
9801;SDS011;4940;50.900;4.672;2023-06-22T09:32:23;9.05;;;5.70;;
9801;SDS011;4940;50.900;4.672;2023-06-22T09:34:51;7.10;;;5.50;;
9801;SDS011;4940;50.900;4.672;2023-06-22T09:37:18;5.95;;;5.35;;
9801;SDS011;4940;50.900;4.672;2023-06-22T09:39:46;8.70;;;5.60;;
9801;SDS011;4940;50.900;4.672;2023-06-22T09:42:13;10.52;;;5.80;;
9801;SDS011;4940;50.900;4.672;2023-06-22T09:44:40;8.02;;;6.85;;
9801;SDS011;4940;50.900;4.672;2023-06-22T09:47:09;10.23;;;9.23;;
9801;SDS011;4940;50.900;4.672;2023-06-22T09:49:36;12.65;;;11.65;;
9801;SDS011;4940;50.900;4.672;2023-06-22T09:52:04;14.00;;;12.75;;
9801;SDS011;4940;50.900;4.672;2023-06-22T09:54:32;14.55;;;13.30;;
9801;SDS011;4940;50.900;4.672;2023-06-22T09:56:59;18.80;;;17.35;;
9801;SDS011;4940;50.900;4.672;2023-06-22T09:59:27;24.13;;;22.33;;
9801;SDS011;4940;50.900;4.672;2023-06-22T10:01:54;34.05;;;31.70;;
9801;SDS011;4940;50.900;4.672;2023-06-22T10:04:23;42.67;;;39.20;;
9801;SDS011;4940;50.900;4.672;2023-06-22T10:06:51;43.42;;;39.58;;
9801;SDS011;4940;50.900;4.672;2023-06-22T10:09:18;44.25;;;40.45;;
9801;SDS011;4940;50.900;4.672;2023-06-22T10:11:46;45.65;;;41.55;;
9801;SDS011;4940;50.900;4.672;2023-06-22T10:14:13;51.15;;;46.72;;
9801;SDS011;4940;50.900;4.672;2023-06-22T10:16:41;54.08;;;49.47;;
9801;SDS011;4940;50.900;4.672;2023-06-22T10:19:09;52.35;;;47.45;;
9801;SDS011;4940;50.900;4.672;2023-06-22T10:21:37;48.67;;;43.97;;
9801;SDS011;4940;50.900;4.672;2023-06-22T10:24:04;51.05;;;45.78;;
9801;SDS011;4940;50.900;4.672;2023-06-22T10:26:32;55.88;;;50.47;;
9801;SDS011;4940;50.900;4.672;2023-06-22T10:29:00;55.92;;;50.92;;
9801;SDS011;4940;50.900;4.672;2023-06-22T10:31:28;54.42;;;49.33;;
9801;SDS011;4940;50.900;4.672;2023-06-22T10:33:55;54.65;;;49.53;;
9801;SDS011;4940;50.900;4.672;2023-06-22T10:36:23;60.50;;;54.90;;
9801;SDS011;4940;50.900;4.672;2023-06-22T10:38:51;54.17;;;49.17;;
9801;SDS011;4940;50.900;4.672;2023-06-22T10:41:19;54.80;;;49.35;;
9801;SDS011;4940;50.900;4.672;2023-06-22T10:43:46;54.90;;;49.28;;
9801;SDS011;4940;50.900;4.672;2023-06-22T10:46:14;59.38;;;53.92;;
9801;SDS011;4940;50.900;4.672;2023-06-22T10:48:41;57.95;;;52.50;;
9801;SDS011;4940;50.900;4.672;2023-06-22T10:51:09;55.60;;;50.15;;
9801;SDS011;4940;50.900;4.672;2023-06-22T10:53:36;50.92;;;45.80;;
9801;SDS011;4940;50.900;4.672;2023-06-22T10:56:05;59.55;;;53.97;;
9801;SDS011;4940;50.900;4.672;2023-06-22T10:58:32;58.30;;;52.83;;
9801;SDS011;4940;50.900;4.672;2023-06-22T11:00:59;61.42;;;55.85;;
9801;SDS011;4940;50.900;4.672;2023-06-22T11:03:28;59.47;;;53.85;;
9801;SDS011;4940;50.900;4.672;2023-06-22T11:05:55;60.90;;;55.10;;
9801;SDS011;4940;50.900;4.672;2023-06-22T11:08:22;62.95;;;56.72;;
9801;SDS011;4940;50.900;4.672;2023-06-22T11:10:50;60.47;;;54.53;;
9801;SDS011;4940;50.900;4.672;2023-06-22T11:13:19;61.83;;;56.00;;
9801;SDS011;4940;50.900;4.672;2023-06-22T11:15:47;68.88;;;62.45;;
9801;SDS011;4940;50.900;4.672;2023-06-22T11:18:14;69.60;;;63.15;;
9801;SDS011;4940;50.900;4.672;2023-06-22T11:20:41;65.35;;;59.28;;
9801;SDS011;4940;50.900;4.672;2023-06-22T11:23:09;75.88;;;68.85;;
9801;SDS011;4940;50.900;4.672;2023-06-22T11:25:37;68.25;;;61.70;;
9801;SDS011;4940;50.900;4.672;2023-06-22T11:28:04;66.65;;;60.10;;
9801;SDS011;4940;50.900;4.672;2023-06-22T11:30:33;74.10;;;67.47;;
9801;SDS011;4940;50.900;4.672;2023-06-22T11:33:00;77.53;;;70.63;;
9801;SDS011;4940;50.900;4.672;2023-06-22T11:35:28;75.13;;;68.13;;
9801;SDS011;4940;50.900;4.672;2023-06-22T11:37:55;73.05;;;66.00;;
9801;SDS011;4940;50.900;4.672;2023-06-22T11:40:23;70.35;;;63.20;;
9801;SDS011;4940;50.900;4.672;2023-06-22T11:42:50;71.40;;;63.90;;
9801;SDS011;4940;50.900;4.672;2023-06-22T11:45:18;73.47;;;66.30;;
9801;SDS011;4940;50.900;4.672;2023-06-22T11:47:47;70.03;;;62.95;;
9801;SDS011;4940;50.900;4.672;2023-06-22T11:50:14;71.25;;;63.88;;
9801;SDS011;4940;50.900;4.672;2023-06-22T11:52:41;79.13;;;70.88;;
9801;SDS011;4940;50.900;4.672;2023-06-22T11:55:09;81.15;;;73.18;;
9801;SDS011;4940;50.900;4.672;2023-06-22T11:57:36;72.25;;;64.55;;
9801;SDS011;4940;50.900;4.672;2023-06-22T12:00:05;76.20;;;68.15;;
9801;SDS011;4940;50.900;4.672;2023-06-22T12:02:40;84.75;;;76.25;;
9801;SDS011;4940;50.900;4.672;2023-06-22T12:05:09;84.07;;;75.43;;
9801;SDS011;4940;50.900;4.672;2023-06-22T12:07:37;81.30;;;73.28;;
9801;SDS011;4940;50.900;4.672;2023-06-22T12:10:05;74.03;;;66.22;;
9801;SDS011;4940;50.900;4.672;2023-06-22T12:12:33;79.93;;;71.78;;
9801;SDS011;4940;50.900;4.672;2023-06-22T12:15:00;81.88;;;73.53;;
9801;SDS011;4940;50.900;4.672;2023-06-22T12:17:29;80.78;;;72.88;;
9801;SDS011;4940;50.900;4.672;2023-06-22T12:19:57;71.63;;;64.03;;
9801;SDS011;4940;50.900;4.672;2023-06-22T12:22:26;79.35;;;71.68;;
9801;SDS011;4940;50.900;4.672;2023-06-22T12:24:53;76.22;;;68.28;;
9801;SDS011;4940;50.900;4.672;2023-06-22T12:27:20;67.65;;;60.58;;
9801;SDS011;4940;50.900;4.672;2023-06-22T12:29:48;76.60;;;69.05;;
9801;SDS011;4940;50.900;4.672;2023-06-22T12:32:15;80.03;;;72.40;;
9801;SDS011;4940;50.900;4.672;2023-06-22T12:34:43;81.97;;;74.38;;
9801;SDS011;4940;50.900;4.672;2023-06-22T12:37:10;81.10;;;73.05;;
9801;SDS011;4940;50.900;4.672;2023-06-22T12:39:40;75.40;;;67.55;;
9801;SDS011;4940;50.900;4.672;2023-06-22T12:42:07;76.78;;;69.20;;
9801;SDS011;4940;50.900;4.672;2023-06-22T12:44:37;84.10;;;75.80;;
9801;SDS011;4940;50.900;4.672;2023-06-22T12:47:05;83.72;;;75.40;;
9801;SDS011;4940;50.900;4.672;2023-06-22T12:49:33;91.53;;;82.28;;
9801;SDS011;4940;50.900;4.672;2023-06-22T12:52:01;84.00;;;75.55;;
9801;SDS011;4940;50.900;4.672;2023-06-22T12:54:28;90.85;;;81.97;;
9801;SDS011;4940;50.900;4.672;2023-06-22T12:56:57;85.15;;;76.97;;
9801;SDS011;4940;50.900;4.672;2023-06-22T12:59:24;87.68;;;78.90;;
9801;SDS011;4940;50.900;4.672;2023-06-22T13:01:52;95.55;;;86.75;;
9801;SDS011;4940;50.900;4.672;2023-06-22T13:04:19;86.03;;;77.68;;
9801;SDS011;4940;50.900;4.672;2023-06-22T13:06:47;85.00;;;76.60;;
9801;SDS011;4940;50.900;4.672;2023-06-22T13:09:14;84.50;;;76.45;;
9801;SDS011;4940;50.900;4.672;2023-06-22T13:11:42;91.55;;;82.38;;
9801;SDS011;4940;50.900;4.672;2023-06-22T13:14:11;96.55;;;87.53;;
9801;SDS011;4940;50.900;4.672;2023-06-22T13:16:38;84.70;;;76.07;;
9801;SDS011;4940;50.900;4.672;2023-06-22T13:19:06;90.18;;;81.40;;
9801;SDS011;4940;50.900;4.672;2023-06-22T13:21:33;92.32;;;83.40;;
9801;SDS011;4940;50.900;4.672;2023-06-22T13:24:00;90.38;;;81.65;;
9801;SDS011;4940;50.900;4.672;2023-06-22T13:26:28;90.70;;;82.28;;
9801;SDS011;4940;50.900;4.672;2023-06-22T13:28:56;93.75;;;84.65;;
9801;SDS011;4940;50.900;4.672;2023-06-22T13:31:25;84.15;;;75.72;;
9801;SDS011;4940;50.900;4.672;2023-06-22T13:33:52;97.55;;;88.47;;
9801;SDS011;4940;50.900;4.672;2023-06-22T13:36:20;86.35;;;77.68;;
9801;SDS011;4940;50.900;4.672;2023-06-22T13:38:48;90.13;;;81.13;;
9801;SDS011;4940;50.900;4.672;2023-06-22T13:41:16;97.10;;;87.60;;
9801;SDS011;4940;50.900;4.672;2023-06-22T13:43:43;95.65;;;86.30;;
9801;SDS011;4940;50.900;4.672;2023-06-22T13:46:10;95.00;;;86.00;;
9801;SDS011;4940;50.900;4.672;2023-06-22T13:48:39;97.22;;;88.05;;
9801;SDS011;4940;50.900;4.672;2023-06-22T13:51:06;95.55;;;85.88;;
9801;SDS011;4940;50.900;4.672;2023-06-22T13:53:34;98.97;;;89.40;;
9801;SDS011;4940;50.900;4.672;2023-06-22T13:56:01;93.38;;;84.35;;
9801;SDS011;4940;50.900;4.672;2023-06-22T13:58:30;91.22;;;82.35;;
9801;SDS011;4940;50.900;4.672;2023-06-22T14:00:57;90.07;;;81.35;;
9801;SDS011;4940;50.900;4.672;2023-06-22T14:03:24;96.82;;;87.03;;
9801;SDS011;4940;50.900;4.672;2023-06-22T14:05:53;97.50;;;87.63;;
9801;SDS011;4940;50.900;4.672;2023-06-22T14:08:21;98.35;;;89.05;;
9801;SDS011;4940;50.900;4.672;2023-06-22T14:10:50;95.47;;;86.28;;
9801;SDS011;4940;50.900;4.672;2023-06-22T14:13:19;86.88;;;77.88;;
9801;SDS011;4940;50.900;4.672;2023-06-22T14:15:46;86.40;;;77.28;;
9801;SDS011;4940;50.900;4.672;2023-06-22T14:18:14;84.05;;;75.05;;
9801;SDS011;4940;50.900;4.672;2023-06-22T14:20:41;102.85;;;93.22;;
9801;SDS011;4940;50.900;4.672;2023-06-22T14:23:10;89.18;;;80.00;;
9801;SDS011;4940;50.900;4.672;2023-06-22T14:25:38;92.63;;;83.50;;
9801;SDS011;4940;50.900;4.672;2023-06-22T14:28:06;89.30;;;80.35;;
9801;SDS011;4940;50.900;4.672;2023-06-22T14:30:33;96.85;;;87.25;;
9801;SDS011;4940;50.900;4.672;2023-06-22T14:33:00;102.22;;;92.35;;
9801;SDS011;4940;50.900;4.672;2023-06-22T14:35:28;89.47;;;80.53;;
9801;SDS011;4940;50.900;4.672;2023-06-22T14:37:55;90.05;;;80.55;;
9801;SDS011;4940;50.900;4.672;2023-06-22T14:40:24;92.32;;;83.28;;
9801;SDS011;4940;50.900;4.672;2023-06-22T14:42:51;95.47;;;85.88;;
9801;SDS011;4940;50.900;4.672;2023-06-22T14:45:21;97.25;;;87.47;;
9801;SDS011;4940;50.900;4.672;2023-06-22T14:47:49;94.40;;;84.57;;
9801;SDS011;4940;50.900;4.672;2023-06-22T14:50:17;100.55;;;90.72;;
9801;SDS011;4940;50.900;4.672;2023-06-22T14:52:44;91.65;;;82.38;;
9801;SDS011;4940;50.900;4.672;2023-06-22T14:55:11;94.45;;;84.78;;
9801;SDS011;4940;50.900;4.672;2023-06-22T14:57:40;103.82;;;93.35;;
9801;SDS011;4940;50.900;4.672;2023-06-22T15:00:08;102.40;;;92.43;;
9801;SDS011;4940;50.900;4.672;2023-06-22T15:02:35;101.95;;;92.07;;